sensor_id;sensor_type;location;lat;lon;timestamp;P1;durP1;ratioP1;P2;durP2;ratioP2
59854;SDS011;45732;52.850;6.896;2022-07-23T00:01:29;4.95;;;1.63;;
59854;SDS011;45732;52.850;6.896;2022-07-23T00:03:54;2.88;;;1.48;;
59854;SDS011;45732;52.850;6.896;2022-07-23T00:06:21;5.25;;;1.92;;
59854;SDS011;45732;52.850;6.896;2022-07-23T00:08:47;4.38;;;1.70;;
59854;SDS011;45732;52.850;6.896;2022-07-23T00:11:13;7.20;;;1.67;;
59854;SDS011;45732;52.850;6.896;2022-07-23T00:13:39;6.72;;;1.70;;
59854;SDS011;45732;52.850;6.896;2022-07-23T00:16:05;3.47;;;1.63;;
59854;SDS011;45732;52.850;6.896;2022-07-23T00:18:31;3.70;;;1.65;;
59854;SDS011;45732;52.850;6.896;2022-07-23T00:20:57;3.65;;;1.92;;
59854;SDS011;45732;52.850;6.896;2022-07-23T00:23:22;4.45;;;1.77;;
59854;SDS011;45732;52.850;6.896;2022-07-23T00:25:50;4.57;;;2.05;;
59854;SDS011;45732;52.850;6.896;2022-07-23T00:28:17;5.55;;;1.90;;
59854;SDS011;45732;52.850;6.896;2022-07-23T00:30:43;3.50;;;1.90;;
59854;SDS011;45732;52.850;6.896;2022-07-23T00:33:09;3.65;;;1.90;;
59854;SDS011;45732;52.850;6.896;2022-07-23T00:35:36;3.53;;;2.05;;
59854;SDS011;45732;52.850;6.896;2022-07-23T00:38:06;3.42;;;2.08;;
59854;SDS011;45732;52.850;6.896;2022-07-23T00:40:32;4.65;;;1.77;;
59854;SDS011;45732;52.850;6.896;2022-07-23T00:42:59;6.03;;;2.00;;
59854;SDS011;45732;52.850;6.896;2022-07-23T00:45:25;4.55;;;2.10;;
59854;SDS011;45732;52.850;6.896;2022-07-23T00:47:51;5.43;;;2.50;;
59854;SDS011;45732;52.850;6.896;2022-07-23T00:50:17;7.13;;;2.35;;
59854;SDS011;45732;52.850;6.896;2022-07-23T00:52:43;8.00;;;2.63;;
59854;SDS011;45732;52.850;6.896;2022-07-23T00:55:10;4.22;;;2.03;;
59854;SDS011;45732;52.850;6.896;2022-07-23T00:57:37;4.57;;;2.40;;
59854;SDS011;45732;52.850;6.896;2022-07-23T01:00:04;7.38;;;3.05;;
59854;SDS011;45732;52.850;6.896;2022-07-23T01:02:31;6.70;;;2.95;;
59854;SDS011;45732;52.850;6.896;2022-07-23T01:04:58;4.43;;;2.90;;
59854;SDS011;45732;52.850;6.896;2022-07-23T01:07:24;5.47;;;3.40;;
59854;SDS011;45732;52.850;6.896;2022-07-23T01:09:50;6.45;;;2.75;;
59854;SDS011;45732;52.850;6.896;2022-07-23T01:12:17;6.75;;;2.90;;
59854;SDS011;45732;52.850;6.896;2022-07-23T01:14:43;7.53;;;2.80;;
59854;SDS011;45732;52.850;6.896;2022-07-23T01:17:08;5.00;;;2.80;;
59854;SDS011;45732;52.850;6.896;2022-07-23T01:19:34;5.30;;;2.85;;
59854;SDS011;45732;52.850;6.896;2022-07-23T01:22:01;5.95;;;3.10;;
59854;SDS011;45732;52.850;6.896;2022-07-23T01:24:28;6.03;;;2.63;;
59854;SDS011;45732;52.850;6.896;2022-07-23T01:26:54;4.32;;;2.55;;
59854;SDS011;45732;52.850;6.896;2022-07-23T01:29:20;5.07;;;2.63;;
59854;SDS011;45732;52.850;6.896;2022-07-23T01:31:46;7.10;;;2.92;;
59854;SDS011;45732;52.850;6.896;2022-07-23T01:34:13;4.85;;;3.10;;
59854;SDS011;45732;52.850;6.896;2022-07-23T01:36:39;5.80;;;3.20;;
59854;SDS011;45732;52.850;6.896;2022-07-23T01:39:06;7.55;;;2.95;;
59854;SDS011;45732;52.850;6.896;2022-07-23T01:41:32;5.95;;;3.03;;
59854;SDS011;45732;52.850;6.896;2022-07-23T01:43:59;9.05;;;3.58;;
59854;SDS011;45732;52.850;6.896;2022-07-23T01:46:25;6.30;;;3.38;;
59854;SDS011;45732;52.850;6.896;2022-07-23T01:48:51;6.28;;;3.30;;
59854;SDS011;45732;52.850;6.896;2022-07-23T01:51:16;8.18;;;3.53;;
59854;SDS011;45732;52.850;6.896;2022-07-23T01:53:42;6.97;;;3.53;;
59854;SDS011;45732;52.850;6.896;2022-07-23T01:56:08;6.13;;;3.60;;
59854;SDS011;45732;52.850;6.896;2022-07-23T01:58:34;8.10;;;4.10;;
59854;SDS011;45732;52.850;6.896;2022-07-23T02:01:00;5.93;;;3.10;;
59854;SDS011;45732;52.850;6.896;2022-07-23T02:03:26;5.55;;;3.08;;
59854;SDS011;45732;52.850;6.896;2022-07-23T02:05:52;5.30;;;3.10;;
59854;SDS011;45732;52.850;6.896;2022-07-23T02:08:17;6.80;;;3.50;;
59854;SDS011;45732;52.850;6.896;2022-07-23T02:10:43;5.78;;;3.72;;
59854;SDS011;45732;52.850;6.896;2022-07-23T02:13:09;5.55;;;3.25;;
59854;SDS011;45732;52.850;6.896;2022-07-23T02:15:35;6.38;;;3.58;;
59854;SDS011;45732;52.850;6.896;2022-07-23T02:18:01;4.80;;;3.15;;
59854;SDS011;45732;52.850;6.896;2022-07-23T02:20:27;5.25;;;3.25;;
59854;SDS011;45732;52.850;6.896;2022-07-23T02:22:53;6.82;;;3.75;;
59854;SDS011;45732;52.850;6.896;2022-07-23T02:25:19;5.47;;;3.30;;
59854;SDS011;45732;52.850;6.896;2022-07-23T02:27:44;5.18;;;3.20;;
59854;SDS011;45732;52.850;6.896;2022-07-23T02:30:10;4.38;;;3.00;;
59854;SDS011;45732;52.850;6.896;2022-07-23T02:32:36;4.38;;;2.55;;
59854;SDS011;45732;52.850;6.896;2022-07-23T02:35:03;5.45;;;2.75;;
59854;SDS011;45732;52.850;6.896;2022-07-23T02:37:29;3.25;;;2.35;;
59854;SDS011;45732;52.850;6.896;2022-07-23T02:39:54;4.35;;;2.33;;
59854;SDS011;45732;52.850;6.896;2022-07-23T02:42:20;5.72;;;2.20;;
59854;SDS011;45732;52.850;6.896;2022-07-23T02:44:46;4.18;;;2.47;;
59854;SDS011;45732;52.850;6.896;2022-07-23T02:47:12;3.53;;;2.40;;
59854;SDS011;45732;52.850;6.896;2022-07-23T02:49:38;4.65;;;2.42;;
59854;SDS011;45732;52.850;6.896;2022-07-23T02:52:03;3.63;;;2.38;;
59854;SDS011;45732;52.850;6.896;2022-07-23T02:54:29;3.10;;;2.13;;
59854;SDS011;45732;52.850;6.896;2022-07-23T02:56:55;3.92;;;2.40;;
59854;SDS011;45732;52.850;6.896;2022-07-23T02:59:20;2.88;;;2.17;;
59854;SDS011;45732;52.850;6.896;2022-07-23T03:01:46;3.97;;;2.38;;
59854;SDS011;45732;52.850;6.896;2022-07-23T03:04:12;4.85;;;2.10;;
59854;SDS011;45732;52.850;6.896;2022-07-23T03:06:38;4.43;;;2.60;;
59854;SDS011;45732;52.850;6.896;2022-07-23T03:09:04;4.78;;;1.88;;
59854;SDS011;45732;52.850;6.896;2022-07-23T03:11:30;4.50;;;1.90;;
59854;SDS011;45732;52.850;6.896;2022-07-23T03:13:56;4.65;;;2.25;;
59854;SDS011;45732;52.850;6.896;2022-07-23T03:16:24;3.85;;;2.50;;
59854;SDS011;45732;52.850;6.896;2022-07-23T03:18:50;5.97;;;2.53;;
59854;SDS011;45732;52.850;6.896;2022-07-23T03:21:16;5.68;;;2.33;;
59854;SDS011;45732;52.850;6.896;2022-07-23T03:23:42;7.00;;;2.30;;
59854;SDS011;45732;52.850;6.896;2022-07-23T03:26:08;4.18;;;2.50;;
59854;SDS011;45732;52.850;6.896;2022-07-23T03:28:34;4.43;;;2.20;;
59854;SDS011;45732;52.850;6.896;2022-07-23T03:30:59;3.78;;;2.28;;
59854;SDS011;45732;52.850;6.896;2022-07-23T03:33:25;3.70;;;2.50;;
59854;SDS011;45732;52.850;6.896;2022-07-23T03:35:51;4.57;;;2.95;;
59854;SDS011;45732;52.850;6.896;2022-07-23T03:38:16;5.30;;;2.75;;
59854;SDS011;45732;52.850;6.896;2022-07-23T03:40:42;4.35;;;2.13;;
59854;SDS011;45732;52.850;6.896;2022-07-23T03:43:07;3.72;;;2.42;;
59854;SDS011;45732;52.850;6.896;2022-07-23T03:45:33;4.05;;;2.30;;
59854;SDS011;45732;52.850;6.896;2022-07-23T03:47:59;3.85;;;2.28;;
59854;SDS011;45732;52.850;6.896;2022-07-23T03:50:25;4.05;;;2.78;;
59854;SDS011;45732;52.850;6.896;2022-07-23T03:52:51;4.18;;;2.65;;
59854;SDS011;45732;52.850;6.896;2022-07-23T03:55:17;4.80;;;2.58;;
59854;SDS011;45732;52.850;6.896;2022-07-23T03:57:43;3.88;;;2.40;;
59854;SDS011;45732;52.850;6.896;2022-07-23T04:00:09;4.80;;;2.70;;
59854;SDS011;45732;52.850;6.896;2022-07-23T04:02:37;6.78;;;2.40;;
59854;SDS011;45732;52.850;6.896;2022-07-23T04:05:03;5.13;;;2.22;;
59854;SDS011;45732;52.850;6.896;2022-07-23T04:07:29;6.32;;;2.53;;
59854;SDS011;45732;52.850;6.896;2022-07-23T04:09:55;4.40;;;2.65;;
59854;SDS011;45732;52.850;6.896;2022-07-23T04:12:21;4.13;;;2.50;;
59854;SDS011;45732;52.850;6.896;2022-07-23T04:14:47;3.88;;;2.45;;
59854;SDS011;45732;52.850;6.896;2022-07-23T04:17:13;5.90;;;2.72;;
59854;SDS011;45732;52.850;6.896;2022-07-23T04:19:38;6.78;;;2.88;;
59854;SDS011;45732;52.850;6.896;2022-07-23T04:22:09;5.30;;;2.45;;
59854;SDS011;45732;52.850;6.896;2022-07-23T04:24:38;5.10;;;2.58;;
59854;SDS011;45732;52.850;6.896;2022-07-23T04:27:04;7.82;;;2.30;;
59854;SDS011;45732;52.850;6.896;2022-07-23T04:29:30;3.78;;;2.83;;
59854;SDS011;45732;52.850;6.896;2022-07-23T04:31:56;4.88;;;2.90;;
59854;SDS011;45732;52.850;6.896;2022-07-23T04:34:22;8.40;;;3.20;;
59854;SDS011;45732;52.850;6.896;2022-07-23T04:36:47;9.70;;;3.55;;
59854;SDS011;45732;52.850;6.896;2022-07-23T04:39:13;7.38;;;3.22;;
59854;SDS011;45732;52.850;6.896;2022-07-23T04:41:39;6.30;;;3.40;;
59854;SDS011;45732;52.850;6.896;2022-07-23T04:44:05;5.88;;;3.10;;
59854;SDS011;45732;52.850;6.896;2022-07-23T04:46:31;8.27;;;3.72;;
59854;SDS011;45732;52.850;6.896;2022-07-23T04:48:57;5.10;;;2.80;;
59854;SDS011;45732;52.850;6.896;2022-07-23T04:51:22;4.68;;;3.40;;
59854;SDS011;45732;52.850;6.896;2022-07-23T04:53:48;6.57;;;3.83;;
59854;SDS011;45732;52.850;6.896;2022-07-23T04:56:14;8.50;;;3.70;;
59854;SDS011;45732;52.850;6.896;2022-07-23T04:58:40;6.38;;;3.92;;
59854;SDS011;45732;52.850;6.896;2022-07-23T05:01:06;8.18;;;3.75;;
59854;SDS011;45732;52.850;6.896;2022-07-23T05:03:32;6.93;;;3.83;;
59854;SDS011;45732;52.850;6.896;2022-07-23T05:05:58;6.63;;;3.42;;
59854;SDS011;45732;52.850;6.896;2022-07-23T05:08:23;7.20;;;3.40;;
59854;SDS011;45732;52.850;6.896;2022-07-23T05:10:49;8.52;;;3.38;;
59854;SDS011;45732;52.850;6.896;2022-07-23T05:13:15;8.80;;;4.00;;
59854;SDS011;45732;52.850;6.896;2022-07-23T05:15:41;8.50;;;3.72;;
59854;SDS011;45732;52.850;6.896;2022-07-23T05:18:08;8.90;;;3.92;;
59854;SDS011;45732;52.850;6.896;2022-07-23T05:20:33;8.13;;;3.47;;
59854;SDS011;45732;52.850;6.896;2022-07-23T05:22:59;7.93;;;4.03;;
59854;SDS011;45732;52.850;6.896;2022-07-23T05:25:25;7.43;;;4.40;;
59854;SDS011;45732;52.850;6.896;2022-07-23T05:27:51;9.85;;;4.13;;
59854;SDS011;45732;52.850;6.896;2022-07-23T05:30:16;10.43;;;4.07;;
59854;SDS011;45732;52.850;6.896;2022-07-23T05:32:42;8.38;;;4.22;;
59854;SDS011;45732;52.850;6.896;2022-07-23T05:35:08;7.25;;;4.13;;
59854;SDS011;45732;52.850;6.896;2022-07-23T05:37:34;9.38;;;3.88;;
59854;SDS011;45732;52.850;6.896;2022-07-23T05:40:03;8.57;;;4.30;;
59854;SDS011;45732;52.850;6.896;2022-07-23T05:42:32;8.70;;;4.00;;
59854;SDS011;45732;52.850;6.896;2022-07-23T05:45:01;8.75;;;3.95;;
59854;SDS011;45732;52.850;6.896;2022-07-23T05:47:28;6.03;;;3.40;;
59854;SDS011;45732;52.850;6.896;2022-07-23T05:49:53;8.63;;;3.42;;
59854;SDS011;45732;52.850;6.896;2022-07-23T05:52:19;6.05;;;3.15;;
59854;SDS011;45732;52.850;6.896;2022-07-23T05:54:45;8.00;;;3.88;;
59854;SDS011;45732;52.850;6.896;2022-07-23T05:57:10;9.18;;;3.35;;
59854;SDS011;45732;52.850;6.896;2022-07-23T05:59:36;6.60;;;2.92;;
59854;SDS011;45732;52.850;6.896;2022-07-23T06:02:02;8.55;;;3.30;;
59854;SDS011;45732;52.850;6.896;2022-07-23T06:04:28;9.05;;;3.38;;
59854;SDS011;45732;52.850;6.896;2022-07-23T06:06:54;7.97;;;3.40;;
59854;SDS011;45732;52.850;6.896;2022-07-23T06:09:19;8.57;;;3.00;;
59854;SDS011;45732;52.850;6.896;2022-07-23T06:11:45;6.90;;;3.22;;
59854;SDS011;45732;52.850;6.896;2022-07-23T06:14:11;3.63;;;2.63;;
59854;SDS011;45732;52.850;6.896;2022-07-23T06:16:36;6.97;;;2.88;;
59854;SDS011;45732;52.850;6.896;2022-07-23T06:19:02;4.80;;;2.60;;
59854;SDS011;45732;52.850;6.896;2022-07-23T06:21:28;7.70;;;2.95;;
59854;SDS011;45732;52.850;6.896;2022-07-23T06:23:53;5.97;;;2.70;;
59854;SDS011;45732;52.850;6.896;2022-07-23T06:26:19;5.22;;;2.75;;
59854;SDS011;45732;52.850;6.896;2022-07-23T06:28:45;6.55;;;2.80;;
59854;SDS011;45732;52.850;6.896;2022-07-23T06:31:10;6.35;;;2.67;;
59854;SDS011;45732;52.850;6.896;2022-07-23T06:33:36;8.93;;;2.58;;
59854;SDS011;45732;52.850;6.896;2022-07-23T06:36:02;6.72;;;2.58;;
59854;SDS011;45732;52.850;6.896;2022-07-23T06:38:27;5.80;;;2.22;;
59854;SDS011;45732;52.850;6.896;2022-07-23T06:40:53;6.05;;;2.30;;
59854;SDS011;45732;52.850;6.896;2022-07-23T06:43:19;5.63;;;2.20;;
59854;SDS011;45732;52.850;6.896;2022-07-23T06:45:44;7.95;;;2.15;;
59854;SDS011;45732;52.850;6.896;2022-07-23T06:48:10;7.25;;;2.22;;
59854;SDS011;45732;52.850;6.896;2022-07-23T06:50:36;4.35;;;1.73;;
59854;SDS011;45732;52.850;6.896;2022-07-23T06:53:01;3.78;;;1.42;;
59854;SDS011;45732;52.850;6.896;2022-07-23T06:55:27;4.32;;;1.45;;
59854;SDS011;45732;52.850;6.896;2022-07-23T06:57:53;4.22;;;1.85;;
59854;SDS011;45732;52.850;6.896;2022-07-23T07:00:18;4.93;;;1.35;;
59854;SDS011;45732;52.850;6.896;2022-07-23T07:02:44;5.07;;;1.40;;
59854;SDS011;45732;52.850;6.896;2022-07-23T07:05:10;2.38;;;1.38;;
59854;SDS011;45732;52.850;6.896;2022-07-23T07:07:35;6.45;;;1.85;;
59854;SDS011;45732;52.850;6.896;2022-07-23T07:10:02;4.03;;;1.40;;
59854;SDS011;45732;52.850;6.896;2022-07-23T07:12:31;3.75;;;1.38;;
59854;SDS011;45732;52.850;6.896;2022-07-23T07:14:57;3.05;;;1.25;;
59854;SDS011;45732;52.850;6.896;2022-07-23T07:17:23;4.72;;;1.55;;
59854;SDS011;45732;52.850;6.896;2022-07-23T07:19:48;7.57;;;1.38;;
59854;SDS011;45732;52.850;6.896;2022-07-23T07:22:14;4.35;;;1.45;;
59854;SDS011;45732;52.850;6.896;2022-07-23T07:24:40;3.15;;;1.05;;
59854;SDS011;45732;52.850;6.896;2022-07-23T07:27:05;4.72;;;1.40;;
59854;SDS011;45732;52.850;6.896;2022-07-23T07:29:31;4.13;;;1.27;;
59854;SDS011;45732;52.850;6.896;2022-07-23T07:31:57;4.47;;;1.00;;
59854;SDS011;45732;52.850;6.896;2022-07-23T07:34:22;4.15;;;1.20;;
59854;SDS011;45732;52.850;6.896;2022-07-23T07:36:48;3.78;;;1.05;;
59854;SDS011;45732;52.850;6.896;2022-07-23T07:39:15;3.90;;;1.17;;
59854;SDS011;45732;52.850;6.896;2022-07-23T07:41:40;3.20;;;1.08;;
59854;SDS011;45732;52.850;6.896;2022-07-23T07:44:06;4.30;;;1.08;;
59854;SDS011;45732;52.850;6.896;2022-07-23T07:46:32;3.30;;;0.90;;
59854;SDS011;45732;52.850;6.896;2022-07-23T07:48:57;3.03;;;1.05;;
59854;SDS011;45732;52.850;6.896;2022-07-23T07:51:23;3.42;;;1.10;;
59854;SDS011;45732;52.850;6.896;2022-07-23T07:53:49;4.72;;;1.27;;
59854;SDS011;45732;52.850;6.896;2022-07-23T07:56:15;2.70;;;1.15;;
59854;SDS011;45732;52.850;6.896;2022-07-23T07:58:40;4.05;;;1.20;;
59854;SDS011;45732;52.850;6.896;2022-07-23T08:01:06;4.95;;;1.40;;
59854;SDS011;45732;52.850;6.896;2022-07-23T08:03:31;4.05;;;0.82;;
59854;SDS011;45732;52.850;6.896;2022-07-23T08:05:57;2.58;;;0.85;;
59854;SDS011;45732;52.850;6.896;2022-07-23T08:08:23;3.20;;;1.00;;
59854;SDS011;45732;52.850;6.896;2022-07-23T08:10:49;5.10;;;1.15;;
59854;SDS011;45732;52.850;6.896;2022-07-23T08:13:15;3.90;;;1.20;;
59854;SDS011;45732;52.850;6.896;2022-07-23T08:15:41;2.28;;;0.93;;
59854;SDS011;45732;52.850;6.896;2022-07-23T08:18:08;2.40;;;0.90;;
59854;SDS011;45732;52.850;6.896;2022-07-23T08:20:34;3.63;;;1.00;;
59854;SDS011;45732;52.850;6.896;2022-07-23T08:23:03;5.10;;;1.00;;
59854;SDS011;45732;52.850;6.896;2022-07-23T08:25:32;3.60;;;1.27;;
59854;SDS011;45732;52.850;6.896;2022-07-23T08:28:00;1.85;;;0.80;;
59854;SDS011;45732;52.850;6.896;2022-07-23T08:30:28;2.15;;;0.80;;
59854;SDS011;45732;52.850;6.896;2022-07-23T08:32:56;3.67;;;0.70;;
59854;SDS011;45732;52.850;6.896;2022-07-23T08:35:23;1.95;;;0.90;;
59854;SDS011;45732;52.850;6.896;2022-07-23T08:37:50;3.85;;;0.88;;
59854;SDS011;45732;52.850;6.896;2022-07-23T08:40:16;1.80;;;0.80;;
59854;SDS011;45732;52.850;6.896;2022-07-23T08:42:42;1.30;;;0.70;;
59854;SDS011;45732;52.850;6.896;2022-07-23T08:45:09;2.67;;;0.90;;
59854;SDS011;45732;52.850;6.896;2022-07-23T08:47:37;2.25;;;0.90;;
59854;SDS011;45732;52.850;6.896;2022-07-23T08:50:03;3.47;;;1.00;;
59854;SDS011;45732;52.850;6.896;2022-07-23T08:52:30;3.90;;;1.05;;
59854;SDS011;45732;52.850;6.896;2022-07-23T08:54:56;5.63;;;1.05;;
59854;SDS011;45732;52.850;6.896;2022-07-23T08:57:23;2.42;;;0.82;;
59854;SDS011;45732;52.850;6.896;2022-07-23T08:59:48;2.65;;;0.90;;
59854;SDS011;45732;52.850;6.896;2022-07-23T09:02:14;6.22;;;1.13;;
59854;SDS011;45732;52.850;6.896;2022-07-23T09:04:40;2.30;;;0.90;;
59854;SDS011;45732;52.850;6.896;2022-07-23T09:07:05;2.05;;;0.60;;
59854;SDS011;45732;52.850;6.896;2022-07-23T09:09:31;2.40;;;0.82;;
59854;SDS011;45732;52.850;6.896;2022-07-23T09:12:16;0.88;;;0.65;;
59854;SDS011;45732;52.850;6.896;2022-07-23T09:14:45;2.60;;;0.90;;
59854;SDS011;45732;52.850;6.896;2022-07-23T09:17:16;1.23;;;0.50;;
59854;SDS011;45732;52.850;6.896;2022-07-23T09:19:43;2.05;;;0.77;;
59854;SDS011;45732;52.850;6.896;2022-07-23T09:22:16;1.67;;;0.80;;
59854;SDS011;45732;52.850;6.896;2022-07-23T09:25:06;2.97;;;0.80;;
59854;SDS011;45732;52.850;6.896;2022-07-23T09:27:44;1.40;;;0.60;;
59854;SDS011;45732;52.850;6.896;2022-07-23T09:30:12;2.75;;;0.82;;
59854;SDS011;45732;52.850;6.896;2022-07-23T09:32:38;1.88;;;1.00;;
59854;SDS011;45732;52.850;6.896;2022-07-23T09:35:05;1.60;;;0.70;;
59854;SDS011;45732;52.850;6.896;2022-07-23T09:37:31;1.80;;;0.60;;
59854;SDS011;45732;52.850;6.896;2022-07-23T09:40:07;1.45;;;0.70;;
59854;SDS011;45732;52.850;6.896;2022-07-23T09:42:36;1.50;;;0.65;;
59854;SDS011;45732;52.850;6.896;2022-07-23T09:45:02;1.65;;;0.80;;
59854;SDS011;45732;52.850;6.896;2022-07-23T09:47:31;2.60;;;0.80;;
59854;SDS011;45732;52.850;6.896;2022-07-23T09:52:42;1.30;;;0.60;;
59854;SDS011;45732;52.850;6.896;2022-07-23T09:55:13;1.00;;;0.60;;
59854;SDS011;45732;52.850;6.896;2022-07-23T09:57:40;0.98;;;0.60;;
59854;SDS011;45732;52.850;6.896;2022-07-23T10:00:08;1.65;;;0.70;;
59854;SDS011;45732;52.850;6.896;2022-07-23T10:02:35;1.50;;;0.70;;
59854;SDS011;45732;52.850;6.896;2022-07-23T10:05:02;0.60;;;0.40;;
59854;SDS011;45732;52.850;6.896;2022-07-23T10:07:30;0.95;;;0.52;;
59854;SDS011;45732;52.850;6.896;2022-07-23T10:09:59;0.80;;;0.52;;
59854;SDS011;45732;52.850;6.896;2022-07-23T10:12:25;1.70;;;0.70;;
59854;SDS011;45732;52.850;6.896;2022-07-23T10:15:04;2.35;;;0.70;;
59854;SDS011;45732;52.850;6.896;2022-07-23T10:17:33;2.53;;;0.88;;
59854;SDS011;45732;52.850;6.896;2022-07-23T10:20:00;3.60;;;0.88;;
59854;SDS011;45732;52.850;6.896;2022-07-23T10:22:33;2.22;;;0.60;;
59854;SDS011;45732;52.850;6.896;2022-07-23T10:25:14;2.78;;;0.70;;
59854;SDS011;45732;52.850;6.896;2022-07-23T10:36:47;2.25;;;0.80;;
59854;SDS011;45732;52.850;6.896;2022-07-23T10:39:24;1.67;;;0.80;;
59854;SDS011;45732;52.850;6.896;2022-07-23T10:42:33;3.03;;;0.88;;
59854;SDS011;45732;52.850;6.896;2022-07-23T10:44:58;2.10;;;0.65;;
59854;SDS011;45732;52.850;6.896;2022-07-23T10:47:27;2.47;;;0.90;;
59854;SDS011;45732;52.850;6.896;2022-07-23T10:50:22;1.20;;;0.70;;
59854;SDS011;45732;52.850;6.896;2022-07-23T10:58:00;2.33;;;0.70;;
59854;SDS011;45732;52.850;6.896;2022-07-23T11:00:27;3.45;;;1.08;;
59854;SDS011;45732;52.850;6.896;2022-07-23T11:02:55;1.70;;;0.73;;
59854;SDS011;45732;52.850;6.896;2022-07-23T11:05:24;2.88;;;0.80;;
59854;SDS011;45732;52.850;6.896;2022-07-23T11:08:10;2.50;;;0.70;;
59854;SDS011;45732;52.850;6.896;2022-07-23T11:31:56;1.13;;;0.80;;
59854;SDS011;45732;52.850;6.896;2022-07-23T11:36:59;2.17;;;0.80;;
59854;SDS011;45732;52.850;6.896;2022-07-23T11:39:29;2.15;;;1.05;;
59854;SDS011;45732;52.850;6.896;2022-07-23T11:41:56;1.80;;;0.82;;
59854;SDS011;45732;52.850;6.896;2022-07-23T11:44:30;4.57;;;1.13;;
59854;SDS011;45732;52.850;6.896;2022-07-23T11:49:27;1.60;;;0.80;;
59854;SDS011;45732;52.850;6.896;2022-07-23T11:52:02;2.22;;;1.10;;
59854;SDS011;45732;52.850;6.896;2022-07-23T11:54:32;2.90;;;1.30;;
59854;SDS011;45732;52.850;6.896;2022-07-23T11:57:00;2.10;;;1.02;;
59854;SDS011;45732;52.850;6.896;2022-07-23T11:59:28;1.60;;;0.80;;
59854;SDS011;45732;52.850;6.896;2022-07-23T12:02:00;3.42;;;1.20;;
59854;SDS011;45732;52.850;6.896;2022-07-23T12:04:44;2.00;;;0.90;;
59854;SDS011;45732;52.850;6.896;2022-07-23T12:10:20;2.40;;;1.25;;
59854;SDS011;45732;52.850;6.896;2022-07-23T12:12:47;3.13;;;1.20;;
59854;SDS011;45732;52.850;6.896;2022-07-23T12:15:18;4.20;;;1.30;;
59854;SDS011;45732;52.850;6.896;2022-07-23T12:17:47;2.30;;;1.20;;
59854;SDS011;45732;52.850;6.896;2022-07-23T12:20:15;3.65;;;1.83;;
59854;SDS011;45732;52.850;6.896;2022-07-23T12:22:46;2.33;;;1.20;;
59854;SDS011;45732;52.850;6.896;2022-07-23T12:25:14;2.88;;;1.30;;
59854;SDS011;45732;52.850;6.896;2022-07-23T12:27:45;3.80;;;1.30;;
59854;SDS011;45732;52.850;6.896;2022-07-23T12:30:17;3.95;;;1.40;;
59854;SDS011;45732;52.850;6.896;2022-07-23T12:32:44;4.95;;;1.15;;
59854;SDS011;45732;52.850;6.896;2022-07-23T12:35:17;1.80;;;1.08;;
59854;SDS011;45732;52.850;6.896;2022-07-23T12:37:44;4.05;;;1.35;;
59854;SDS011;45732;52.850;6.896;2022-07-23T12:40:22;2.92;;;1.20;;
59854;SDS011;45732;52.850;6.896;2022-07-23T12:42:54;3.38;;;1.40;;
59854;SDS011;45732;52.850;6.896;2022-07-23T12:45:23;3.03;;;1.42;;
59854;SDS011;45732;52.850;6.896;2022-07-23T12:47:52;4.40;;;1.42;;
59854;SDS011;45732;52.850;6.896;2022-07-23T12:53:53;3.58;;;1.50;;
59854;SDS011;45732;52.850;6.896;2022-07-23T12:56:11;2.92;;;1.45;;
59854;SDS011;45732;52.850;6.896;2022-07-23T12:58:46;3.50;;;1.20;;
59854;SDS011;45732;52.850;6.896;2022-07-23T13:03:54;2.75;;;1.48;;
59854;SDS011;45732;52.850;6.896;2022-07-23T13:06:30;2.40;;;1.17;;
59854;SDS011;45732;52.850;6.896;2022-07-23T13:08:57;1.88;;;1.35;;
59854;SDS011;45732;52.850;6.896;2022-07-23T13:11:23;3.00;;;1.30;;
59854;SDS011;45732;52.850;6.896;2022-07-23T13:13:49;4.97;;;1.60;;
59854;SDS011;45732;52.850;6.896;2022-07-23T13:16:14;4.35;;;1.50;;
59854;SDS011;45732;52.850;6.896;2022-07-23T13:18:40;3.65;;;1.55;;
59854;SDS011;45732;52.850;6.896;2022-07-23T13:21:06;4.32;;;1.58;;
59854;SDS011;45732;52.850;6.896;2022-07-23T13:23:33;3.42;;;1.45;;
59854;SDS011;45732;52.850;6.896;2022-07-23T13:25:58;1.95;;;1.10;;
59854;SDS011;45732;52.850;6.896;2022-07-23T13:28:24;1.92;;;1.40;;
59854;SDS011;45732;52.850;6.896;2022-07-23T13:30:51;3.35;;;1.50;;
59854;SDS011;45732;52.850;6.896;2022-07-23T13:33:18;3.90;;;1.30;;
59854;SDS011;45732;52.850;6.896;2022-07-23T13:35:45;2.78;;;1.20;;
59854;SDS011;45732;52.850;6.896;2022-07-23T13:38:11;2.97;;;1.40;;
59854;SDS011;45732;52.850;6.896;2022-07-23T13:40:38;2.55;;;1.20;;
59854;SDS011;45732;52.850;6.896;2022-07-23T13:43:07;2.88;;;1.42;;
59854;SDS011;45732;52.850;6.896;2022-07-23T13:45:34;2.75;;;1.30;;
59854;SDS011;45732;52.850;6.896;2022-07-23T13:48:00;3.00;;;1.35;;
59854;SDS011;45732;52.850;6.896;2022-07-23T13:50:27;2.10;;;1.35;;
59854;SDS011;45732;52.850;6.896;2022-07-23T13:52:53;2.70;;;1.40;;
59854;SDS011;45732;52.850;6.896;2022-07-23T13:55:18;2.95;;;1.50;;
59854;SDS011;45732;52.850;6.896;2022-07-23T13:57:44;2.35;;;1.30;;
59854;SDS011;45732;52.850;6.896;2022-07-23T14:00:10;3.40;;;1.52;;
59854;SDS011;45732;52.850;6.896;2022-07-23T14:02:37;2.83;;;1.42;;
59854;SDS011;45732;52.850;6.896;2022-07-23T14:05:05;3.10;;;1.30;;
59854;SDS011;45732;52.850;6.896;2022-07-23T14:07:32;4.35;;;1.58;;
59854;SDS011;45732;52.850;6.896;2022-07-23T14:09:58;3.17;;;1.20;;
59854;SDS011;45732;52.850;6.896;2022-07-23T14:12:24;3.47;;;1.25;;
59854;SDS011;45732;52.850;6.896;2022-07-23T14:14:50;1.85;;;1.20;;
59854;SDS011;45732;52.850;6.896;2022-07-23T14:17:16;2.92;;;1.38;;
59854;SDS011;45732;52.850;6.896;2022-07-23T14:19:42;4.30;;;1.50;;
59854;SDS011;45732;52.850;6.896;2022-07-23T14:22:08;4.50;;;1.30;;
59854;SDS011;45732;52.850;6.896;2022-07-23T14:24:33;3.70;;;1.63;;
59854;SDS011;45732;52.850;6.896;2022-07-23T14:27:00;2.50;;;1.20;;
59854;SDS011;45732;52.850;6.896;2022-07-23T14:29:26;1.75;;;1.17;;
59854;SDS011;45732;52.850;6.896;2022-07-23T14:31:52;2.35;;;1.50;;
59854;SDS011;45732;52.850;6.896;2022-07-23T14:34:18;7.03;;;1.52;;
59854;SDS011;45732;52.850;6.896;2022-07-23T14:36:44;6.55;;;1.40;;
59854;SDS011;45732;52.850;6.896;2022-07-23T14:39:09;2.63;;;1.20;;
59854;SDS011;45732;52.850;6.896;2022-07-23T14:41:37;1.85;;;1.17;;
59854;SDS011;45732;52.850;6.896;2022-07-23T14:44:03;3.70;;;1.50;;
59854;SDS011;45732;52.850;6.896;2022-07-23T14:46:29;2.00;;;1.30;;
59854;SDS011;45732;52.850;6.896;2022-07-23T14:48:55;3.78;;;1.30;;
59854;SDS011;45732;52.850;6.896;2022-07-23T14:51:21;3.08;;;1.38;;
59854;SDS011;45732;52.850;6.896;2022-07-23T14:53:46;2.90;;;1.40;;
59854;SDS011;45732;52.850;6.896;2022-07-23T14:56:12;2.28;;;1.20;;
59854;SDS011;45732;52.850;6.896;2022-07-23T14:58:39;3.70;;;1.70;;
59854;SDS011;45732;52.850;6.896;2022-07-23T15:01:05;3.83;;;1.23;;
59854;SDS011;45732;52.850;6.896;2022-07-23T15:03:31;2.88;;;1.27;;
59854;SDS011;45732;52.850;6.896;2022-07-23T15:05:56;3.05;;;1.30;;
59854;SDS011;45732;52.850;6.896;2022-07-23T15:08:22;3.47;;;1.55;;
59854;SDS011;45732;52.850;6.896;2022-07-23T15:10:48;2.65;;;1.52;;
59854;SDS011;45732;52.850;6.896;2022-07-23T15:13:13;4.43;;;1.33;;
59854;SDS011;45732;52.850;6.896;2022-07-23T15:15:39;2.30;;;1.42;;
59854;SDS011;45732;52.850;6.896;2022-07-23T15:18:05;4.47;;;1.30;;
59854;SDS011;45732;52.850;6.896;2022-07-23T15:20:31;2.65;;;1.23;;
59854;SDS011;45732;52.850;6.896;2022-07-23T15:22:57;3.30;;;1.33;;
59854;SDS011;45732;52.850;6.896;2022-07-23T15:25:23;4.38;;;1.40;;
59854;SDS011;45732;52.850;6.896;2022-07-23T15:27:49;2.78;;;1.23;;
59854;SDS011;45732;52.850;6.896;2022-07-23T15:30:14;2.17;;;1.23;;
59854;SDS011;45732;52.850;6.896;2022-07-23T15:32:40;3.78;;;1.40;;
59854;SDS011;45732;52.850;6.896;2022-07-23T15:35:06;3.85;;;1.30;;
59854;SDS011;45732;52.850;6.896;2022-07-23T15:37:33;2.15;;;1.10;;
59854;SDS011;45732;52.850;6.896;2022-07-23T15:40:00;2.28;;;1.42;;